sensor_id;sensor_type;location;lat;lon;timestamp;temperature;humidity
11387;DHT22;5748;53.102;8.456;2022-11-28T00:01:47;10.40;67.50
11387;DHT22;5748;53.102;8.456;2022-11-28T00:04:14;10.50;67.70
11387;DHT22;5748;53.102;8.456;2022-11-28T00:06:44;10.50;67.80
11387;DHT22;5748;53.102;8.456;2022-11-28T00:09:14;10.40;67.70
11387;DHT22;5748;53.102;8.456;2022-11-28T00:11:43;10.40;67.70
11387;DHT22;5748;53.102;8.456;2022-11-28T00:14:11;10.40;67.70
11387;DHT22;5748;53.102;8.456;2022-11-28T00:16:38;10.40;67.70
11387;DHT22;5748;53.102;8.456;2022-11-28T00:19:07;10.40;67.70
11387;DHT22;5748;53.102;8.456;2022-11-28T00:21:34;10.40;67.80
11387;DHT22;5748;53.102;8.456;2022-11-28T00:24:02;10.40;67.60
11387;DHT22;5748;53.102;8.456;2022-11-28T00:26:31;10.40;67.70
11387;DHT22;5748;53.102;8.456;2022-11-28T00:28:59;10.40;67.70
11387;DHT22;5748;53.102;8.456;2022-11-28T00:31:30;10.40;67.60
11387;DHT22;5748;53.102;8.456;2022-11-28T00:33:59;10.40;67.70
11387;DHT22;5748;53.102;8.456;2022-11-28T00:36:29;10.40;67.70
11387;DHT22;5748;53.102;8.456;2022-11-28T00:38:56;10.40;67.80
11387;DHT22;5748;53.102;8.456;2022-11-28T00:41:27;10.40;67.70
11387;DHT22;5748;53.102;8.456;2022-11-28T00:43:56;10.50;67.80
11387;DHT22;5748;53.102;8.456;2022-11-28T00:46:24;10.30;67.60
11387;DHT22;5748;53.102;8.456;2022-11-28T00:48:51;10.40;67.60
11387;DHT22;5748;53.102;8.456;2022-11-28T00:51:20;10.40;68.40
11387;DHT22;5748;53.102;8.456;2022-11-28T00:53:58;10.40;67.70
11387;DHT22;5748;53.102;8.456;2022-11-28T00:56:28;10.30;67.60
11387;DHT22;5748;53.102;8.456;2022-11-28T00:58:56;10.40;67.60
11387;DHT22;5748;53.102;8.456;2022-11-28T01:01:25;10.30;67.60
11387;DHT22;5748;53.102;8.456;2022-11-28T01:03:55;10.40;67.70
11387;DHT22;5748;53.102;8.456;2022-11-28T01:06:24;10.30;67.50
11387;DHT22;5748;53.102;8.456;2022-11-28T01:08:56;10.30;67.50
11387;DHT22;5748;53.102;8.456;2022-11-28T01:11:26;10.30;67.50
11387;DHT22;5748;53.102;8.456;2022-11-28T01:13:54;10.30;67.60
11387;DHT22;5748;53.102;8.456;2022-11-28T01:16:22;10.30;67.60
11387;DHT22;5748;53.102;8.456;2022-11-28T01:18:50;10.30;67.50
11387;DHT22;5748;53.102;8.456;2022-11-28T01:21:23;10.20;67.50
11387;DHT22;5748;53.102;8.456;2022-11-28T01:23:51;10.20;67.50
11387;DHT22;5748;53.102;8.456;2022-11-28T01:26:22;10.20;67.50
11387;DHT22;5748;53.102;8.456;2022-11-28T01:28:50;10.20;67.50
11387;DHT22;5748;53.102;8.456;2022-11-28T01:31:26;10.20;67.40
11387;DHT22;5748;53.102;8.456;2022-11-28T01:33:55;10.20;67.50
11387;DHT22;5748;53.102;8.456;2022-11-28T01:36:23;10.20;67.50
11387;DHT22;5748;53.102;8.456;2022-11-28T01:38:51;10.20;67.50
11387;DHT22;5748;53.102;8.456;2022-11-28T01:41:29;10.20;67.40
11387;DHT22;5748;53.102;8.456;2022-11-28T01:44:03;10.20;67.30
11387;DHT22;5748;53.102;8.456;2022-11-28T01:46:34;10.20;67.40
11387;DHT22;5748;53.102;8.456;2022-11-28T01:49:06;10.20;67.50
11387;DHT22;5748;53.102;8.456;2022-11-28T01:51:41;10.70;68.10
11387;DHT22;5748;53.102;8.456;2022-11-28T01:54:11;10.20;67.70
11387;DHT22;5748;53.102;8.456;2022-11-28T01:56:43;10.30;67.50
11387;DHT22;5748;53.102;8.456;2022-11-28T02:02:17;10.20;67.40
11387;DHT22;5748;53.102;8.456;2022-11-28T02:04:51;10.30;67.50
11387;DHT22;5748;53.102;8.456;2022-11-28T02:07:19;10.30;67.40
11387;DHT22;5748;53.102;8.456;2022-11-28T02:09:46;10.30;67.40
11387;DHT22;5748;53.102;8.456;2022-11-28T02:12:27;10.30;67.20
11387;DHT22;5748;53.102;8.456;2022-11-28T02:15:25;10.20;67.30
11387;DHT22;5748;53.102;8.456;2022-11-28T02:18:11;10.30;67.30
11387;DHT22;5748;53.102;8.456;2022-11-28T02:21:02;10.30;67.30
11387;DHT22;5748;53.102;8.456;2022-11-28T02:30:18;10.30;67.20
11387;DHT22;5748;53.102;8.456;2022-11-28T02:32:56;10.30;67.20
11387;DHT22;5748;53.102;8.456;2022-11-28T02:35:35;10.30;67.20
11387;DHT22;5748;53.102;8.456;2022-11-28T02:38:14;10.30;67.20
11387;DHT22;5748;53.102;8.456;2022-11-28T02:40:52;10.30;67.10
11387;DHT22;5748;53.102;8.456;2022-11-28T02:43:42;10.40;67.90
11387;DHT22;5748;53.102;8.456;2022-11-28T02:46:13;10.30;67.10
11387;DHT22;5748;53.102;8.456;2022-11-28T02:48:48;10.40;67.20
11387;DHT22;5748;53.102;8.456;2022-11-28T02:51:22;10.40;67.20
11387;DHT22;5748;53.102;8.456;2022-11-28T02:53:54;10.40;67.20
11387;DHT22;5748;53.102;8.456;2022-11-28T02:56:23;10.40;67.20
11387;DHT22;5748;53.102;8.456;2022-11-28T02:58:51;10.40;67.20
11387;DHT22;5748;53.102;8.456;2022-11-28T03:01:20;10.40;67.20
11387;DHT22;5748;53.102;8.456;2022-11-28T03:04:11;10.40;67.20
11387;DHT22;5748;53.102;8.456;2022-11-28T03:06:51;10.40;67.00
11387;DHT22;5748;53.102;8.456;2022-11-28T03:12:36;10.40;66.90
11387;DHT22;5748;53.102;8.456;2022-11-28T03:15:13;10.40;67.00
11387;DHT22;5748;53.102;8.456;2022-11-28T03:17:50;10.40;66.90
11387;DHT22;5748;53.102;8.456;2022-11-28T03:20:23;10.40;67.00
11387;DHT22;5748;53.102;8.456;2022-11-28T03:23:10;10.40;67.40
11387;DHT22;5748;53.102;8.456;2022-11-28T03:25:50;10.40;66.90
11387;DHT22;5748;53.102;8.456;2022-11-28T03:28:25;10.40;66.90
11387;DHT22;5748;53.102;8.456;2022-11-28T03:30:59;10.50;67.00
11387;DHT22;5748;53.102;8.456;2022-11-28T03:33:31;10.40;66.80
11387;DHT22;5748;53.102;8.456;2022-11-28T03:36:03;10.40;66.90
11387;DHT22;5748;53.102;8.456;2022-11-28T03:38:35;10.50;66.90
11387;DHT22;5748;53.102;8.456;2022-11-28T03:41:09;10.50;66.90
11387;DHT22;5748;53.102;8.456;2022-11-28T03:43:42;10.50;66.80
11387;DHT22;5748;53.102;8.456;2022-11-28T03:46:15;10.50;66.60
11387;DHT22;5748;53.102;8.456;2022-11-28T03:48:46;10.50;66.70
11387;DHT22;5748;53.102;8.456;2022-11-28T03:51:21;10.50;66.80
11387;DHT22;5748;53.102;8.456;2022-11-28T03:54:02;10.50;66.80
11387;DHT22;5748;53.102;8.456;2022-11-28T03:56:39;10.50;66.70
11387;DHT22;5748;53.102;8.456;2022-11-28T03:59:12;10.50;66.70
11387;DHT22;5748;53.102;8.456;2022-11-28T04:01:49;10.50;66.80
11387;DHT22;5748;53.102;8.456;2022-11-28T04:04:24;10.50;66.90
11387;DHT22;5748;53.102;8.456;2022-11-28T04:06:57;10.40;66.70
11387;DHT22;5748;53.102;8.456;2022-11-28T04:09:38;10.40;66.70
11387;DHT22;5748;53.102;8.456;2022-11-28T04:12:15;10.40;66.70
11387;DHT22;5748;53.102;8.456;2022-11-28T04:14:50;10.40;66.80
11387;DHT22;5748;53.102;8.456;2022-11-28T04:17:25;10.40;66.90
11387;DHT22;5748;53.102;8.456;2022-11-28T04:19:59;10.40;66.90
11387;DHT22;5748;53.102;8.456;2022-11-28T04:22:34;10.40;66.90
11387;DHT22;5748;53.102;8.456;2022-11-28T04:25:06;10.40;67.00
11387;DHT22;5748;53.102;8.456;2022-11-28T04:27:39;10.40;67.00
11387;DHT22;5748;53.102;8.456;2022-11-28T04:30:09;10.40;67.00
11387;DHT22;5748;53.102;8.456;2022-11-28T04:32:41;10.40;67.00
11387;DHT22;5748;53.102;8.456;2022-11-28T04:35:22;10.40;67.00
11387;DHT22;5748;53.102;8.456;2022-11-28T04:37:53;10.40;67.00
11387;DHT22;5748;53.102;8.456;2022-11-28T04:40:23;10.40;67.00
11387;DHT22;5748;53.102;8.456;2022-11-28T04:42:53;10.40;67.10
11387;DHT22;5748;53.102;8.456;2022-11-28T04:45:24;10.40;67.00
11387;DHT22;5748;53.102;8.456;2022-11-28T04:47:53;10.40;67.00
11387;DHT22;5748;53.102;8.456;2022-11-28T04:50:22;10.40;67.00
11387;DHT22;5748;53.102;8.456;2022-11-28T04:53:02;10.40;67.10
11387;DHT22;5748;53.102;8.456;2022-11-28T04:55:35;10.40;67.10
11387;DHT22;5748;53.102;8.456;2022-11-28T04:58:08;11.40;68.00
11387;DHT22;5748;53.102;8.456;2022-11-28T05:00:39;11.00;67.70
11387;DHT22;5748;53.102;8.456;2022-11-28T05:03:07;10.40;67.10
11387;DHT22;5748;53.102;8.456;2022-11-28T05:05:42;10.40;67.10
11387;DHT22;5748;53.102;8.456;2022-11-28T05:08:12;10.40;67.20
11387;DHT22;5748;53.102;8.456;2022-11-28T05:10:39;10.30;66.90
11387;DHT22;5748;53.102;8.456;2022-11-28T05:13:06;10.30;67.00
11387;DHT22;5748;53.102;8.456;2022-11-28T05:15:33;10.30;66.90
11387;DHT22;5748;53.102;8.456;2022-11-28T05:18:01;10.30;67.70
11387;DHT22;5748;53.102;8.456;2022-11-28T05:20:28;10.40;67.00
11387;DHT22;5748;53.102;8.456;2022-11-28T05:22:55;10.40;67.10
11387;DHT22;5748;53.102;8.456;2022-11-28T05:25:25;10.40;67.10
11387;DHT22;5748;53.102;8.456;2022-11-28T05:27:52;10.40;67.00
11387;DHT22;5748;53.102;8.456;2022-11-28T05:30:19;10.40;66.90
11387;DHT22;5748;53.102;8.456;2022-11-28T05:32:47;10.40;67.00
11387;DHT22;5748;53.102;8.456;2022-11-28T05:35:16;10.40;67.00
11387;DHT22;5748;53.102;8.456;2022-11-28T05:37:45;10.40;67.00
11387;DHT22;5748;53.102;8.456;2022-11-28T05:40:13;10.30;67.00
11387;DHT22;5748;53.102;8.456;2022-11-28T05:42:41;10.40;67.10
11387;DHT22;5748;53.102;8.456;2022-11-28T05:45:08;10.40;67.10
11387;DHT22;5748;53.102;8.456;2022-11-28T05:47:36;10.40;67.10
11387;DHT22;5748;53.102;8.456;2022-11-28T05:50:03;10.30;66.90
11387;DHT22;5748;53.102;8.456;2022-11-28T05:52:31;10.40;67.00
11387;DHT22;5748;53.102;8.456;2022-11-28T05:54:58;10.30;66.90
11387;DHT22;5748;53.102;8.456;2022-11-28T05:57:26;10.30;66.90
11387;DHT22;5748;53.102;8.456;2022-11-28T05:59:55;10.40;67.10
11387;DHT22;5748;53.102;8.456;2022-11-28T06:02:23;10.30;67.00
11387;DHT22;5748;53.102;8.456;2022-11-28T06:04:51;10.30;67.00
11387;DHT22;5748;53.102;8.456;2022-11-28T06:07:18;10.30;67.00
11387;DHT22;5748;53.102;8.456;2022-11-28T06:09:45;10.30;67.00
11387;DHT22;5748;53.102;8.456;2022-11-28T06:12:12;10.30;67.20
11387;DHT22;5748;53.102;8.456;2022-11-28T06:14:39;10.30;67.20
11387;DHT22;5748;53.102;8.456;2022-11-28T06:17:08;10.30;67.10
11387;DHT22;5748;53.102;8.456;2022-11-28T06:19:35;10.30;67.10
11387;DHT22;5748;53.102;8.456;2022-11-28T06:22:02;10.30;67.10
11387;DHT22;5748;53.102;8.456;2022-11-28T06:24:29;10.30;67.20
11387;DHT22;5748;53.102;8.456;2022-11-28T06:26:56;10.30;67.20
11387;DHT22;5748;53.102;8.456;2022-11-28T06:29:23;10.30;67.20
11387;DHT22;5748;53.102;8.456;2022-11-28T06:31:50;10.30;67.10
11387;DHT22;5748;53.102;8.456;2022-11-28T06:34:18;10.30;67.20
11387;DHT22;5748;53.102;8.456;2022-11-28T06:36:45;10.30;67.20
11387;DHT22;5748;53.102;8.456;2022-11-28T06:39:13;10.20;67.10
11387;DHT22;5748;53.102;8.456;2022-11-28T06:41:42;10.20;67.20
11387;DHT22;5748;53.102;8.456;2022-11-28T06:44:12;10.20;67.30
11387;DHT22;5748;53.102;8.456;2022-11-28T06:46:40;10.20;67.30
11387;DHT22;5748;53.102;8.456;2022-11-28T06:49:09;10.20;67.30
11387;DHT22;5748;53.102;8.456;2022-11-28T06:51:38;10.20;67.40
11387;DHT22;5748;53.102;8.456;2022-11-28T06:54:06;10.10;67.30
11387;DHT22;5748;53.102;8.456;2022-11-28T06:56:34;10.20;67.40
11387;DHT22;5748;53.102;8.456;2022-11-28T06:59:01;10.20;67.30
11387;DHT22;5748;53.102;8.456;2022-11-28T07:01:29;10.10;67.30
11387;DHT22;5748;53.102;8.456;2022-11-28T07:03:57;10.10;67.40
11387;DHT22;5748;53.102;8.456;2022-11-28T07:06:25;10.10;67.40
11387;DHT22;5748;53.102;8.456;2022-11-28T07:08:55;10.10;67.50
11387;DHT22;5748;53.102;8.456;2022-11-28T07:11:24;10.10;67.60
11387;DHT22;5748;53.102;8.456;2022-11-28T07:13:52;10.00;67.60
11387;DHT22;5748;53.102;8.456;2022-11-28T07:16:22;10.00;67.60
11387;DHT22;5748;53.102;8.456;2022-11-28T07:18:50;10.10;67.80
11387;DHT22;5748;53.102;8.456;2022-11-28T07:21:18;10.10;67.80
11387;DHT22;5748;53.102;8.456;2022-11-28T07:23:45;10.10;67.80
11387;DHT22;5748;53.102;8.456;2022-11-28T07:26:16;10.00;67.80
11387;DHT22;5748;53.102;8.456;2022-11-28T07:28:44;10.10;67.90
11387;DHT22;5748;53.102;8.456;2022-11-28T07:31:14;10.10;67.90
11387;DHT22;5748;53.102;8.456;2022-11-28T07:33:43;10.10;67.90
11387;DHT22;5748;53.102;8.456;2022-11-28T07:36:15;10.10;67.90
11387;DHT22;5748;53.102;8.456;2022-11-28T07:38:45;10.10;68.00
11387;DHT22;5748;53.102;8.456;2022-11-28T07:41:14;10.10;67.90
11387;DHT22;5748;53.102;8.456;2022-11-28T07:43:43;10.10;68.00
11387;DHT22;5748;53.102;8.456;2022-11-28T07:46:15;10.10;68.20
11387;DHT22;5748;53.102;8.456;2022-11-28T07:48:43;10.20;68.10
11387;DHT22;5748;53.102;8.456;2022-11-28T07:51:13;10.20;68.10
11387;DHT22;5748;53.102;8.456;2022-11-28T07:53:41;10.20;68.10
11387;DHT22;5748;53.102;8.456;2022-11-28T07:56:10;10.20;68.20
11387;DHT22;5748;53.102;8.456;2022-11-28T07:58:42;10.20;68.20
11387;DHT22;5748;53.102;8.456;2022-11-28T08:01:10;10.20;68.20
11387;DHT22;5748;53.102;8.456;2022-11-28T08:03:39;10.20;68.30
11387;DHT22;5748;53.102;8.456;2022-11-28T08:06:06;10.20;68.30
11387;DHT22;5748;53.102;8.456;2022-11-28T08:08:34;10.20;68.30
11387;DHT22;5748;53.102;8.456;2022-11-28T08:11:04;10.20;68.40
11387;DHT22;5748;53.102;8.456;2022-11-28T08:13:33;10.20;68.30
11387;DHT22;5748;53.102;8.456;2022-11-28T08:16:04;10.20;68.30
11387;DHT22;5748;53.102;8.456;2022-11-28T08:18:32;10.20;68.30
11387;DHT22;5748;53.102;8.456;2022-11-28T08:21:03;10.20;68.30
11387;DHT22;5748;53.102;8.456;2022-11-28T08:23:32;10.20;68.40
11387;DHT22;5748;53.102;8.456;2022-11-28T08:25:59;10.30;68.40
11387;DHT22;5748;53.102;8.456;2022-11-28T08:28:27;10.30;68.50
11387;DHT22;5748;53.102;8.456;2022-11-28T08:30:54;10.30;68.50
11387;DHT22;5748;53.102;8.456;2022-11-28T08:33:22;10.30;68.40
11387;DHT22;5748;53.102;8.456;2022-11-28T08:35:50;10.30;68.50
11387;DHT22;5748;53.102;8.456;2022-11-28T08:38:17;10.30;68.50
11387;DHT22;5748;53.102;8.456;2022-11-28T08:40:45;10.30;68.60
11387;DHT22;5748;53.102;8.456;2022-11-28T08:43:12;10.30;68.40
11387;DHT22;5748;53.102;8.456;2022-11-28T08:45:39;10.30;68.40
11387;DHT22;5748;53.102;8.456;2022-11-28T08:48:06;10.30;68.40
11387;DHT22;5748;53.102;8.456;2022-11-28T08:50:34;10.30;68.30
11387;DHT22;5748;53.102;8.456;2022-11-28T08:53:01;10.30;68.20
11387;DHT22;5748;53.102;8.456;2022-11-28T08:55:28;10.30;68.30
11387;DHT22;5748;53.102;8.456;2022-11-28T08:57:55;10.30;68.40
11387;DHT22;5748;53.102;8.456;2022-11-28T09:00:23;10.30;68.40
11387;DHT22;5748;53.102;8.456;2022-11-28T09:02:50;10.30;68.40
11387;DHT22;5748;53.102;8.456;2022-11-28T09:05:17;10.30;68.40
11387;DHT22;5748;53.102;8.456;2022-11-28T09:07:45;10.40;68.50
11387;DHT22;5748;53.102;8.456;2022-11-28T09:10:12;10.30;68.40
11387;DHT22;5748;53.102;8.456;2022-11-28T09:12:40;10.40;68.40
11387;DHT22;5748;53.102;8.456;2022-11-28T09:15:09;10.40;68.40
11387;DHT22;5748;53.102;8.456;2022-11-28T09:17:36;10.40;68.40
11387;DHT22;5748;53.102;8.456;2022-11-28T09:20:04;10.40;68.40
11387;DHT22;5748;53.102;8.456;2022-11-28T09:22:33;10.40;68.40
11387;DHT22;5748;53.102;8.456;2022-11-28T09:25:06;10.30;68.30
11387;DHT22;5748;53.102;8.456;2022-11-28T09:27:34;10.40;69.30
11387;DHT22;5748;53.102;8.456;2022-11-28T09:30:01;10.40;68.50
11387;DHT22;5748;53.102;8.456;2022-11-28T09:32:29;10.40;68.60
11387;DHT22;5748;53.102;8.456;2022-11-28T09:34:56;10.40;68.40
11387;DHT22;5748;53.102;8.456;2022-11-28T09:37:23;10.40;68.50
11387;DHT22;5748;53.102;8.456;2022-11-28T09:39:50;10.30;68.50
11387;DHT22;5748;53.102;8.456;2022-11-28T09:42:24;10.40;68.50
11387;DHT22;5748;53.102;8.456;2022-11-28T09:44:57;10.40;68.60
11387;DHT22;5748;53.102;8.456;2022-11-28T09:47:28;10.40;68.60
11387;DHT22;5748;53.102;8.456;2022-11-28T09:49:59;10.40;68.50
11387;DHT22;5748;53.102;8.456;2022-11-28T09:52:35;10.40;68.50
11387;DHT22;5748;53.102;8.456;2022-11-28T09:55:13;10.50;68.50
11387;DHT22;5748;53.102;8.456;2022-11-28T09:57:45;10.40;68.40
11387;DHT22;5748;53.102;8.456;2022-11-28T10:00:16;10.50;68.50
11387;DHT22;5748;53.102;8.456;2022-11-28T10:02:57;10.40;68.40
11387;DHT22;5748;53.102;8.456;2022-11-28T10:05:36;10.50;68.60
11387;DHT22;5748;53.102;8.456;2022-11-28T10:08:20;10.50;68.60
11387;DHT22;5748;53.102;8.456;2022-11-28T10:10:56;10.50;68.70
11387;DHT22;5748;53.102;8.456;2022-11-28T10:13:33;10.50;68.60
11387;DHT22;5748;53.102;8.456;2022-11-28T10:16:11;10.50;68.50
11387;DHT22;5748;53.102;8.456;2022-11-28T10:18:45;10.50;68.40
11387;DHT22;5748;53.102;8.456;2022-11-28T10:21:22;10.50;68.40
11387;DHT22;5748;53.102;8.456;2022-11-28T10:24:12;10.50;68.40
11387;DHT22;5748;53.102;8.456;2022-11-28T10:26:45;10.50;68.30
11387;DHT22;5748;53.102;8.456;2022-11-28T10:29:21;10.50;68.40
11387;DHT22;5748;53.102;8.456;2022-11-28T10:31:54;10.50;68.40
11387;DHT22;5748;53.102;8.456;2022-11-28T10:34:27;10.50;68.40
11387;DHT22;5748;53.102;8.456;2022-11-28T10:37:00;10.50;68.40
11387;DHT22;5748;53.102;8.456;2022-11-28T10:39:29;10.50;68.40
11387;DHT22;5748;53.102;8.456;2022-11-28T10:42:00;10.50;68.30
11387;DHT22;5748;53.102;8.456;2022-11-28T10:48:03;10.50;68.50
11387;DHT22;5748;53.102;8.456;2022-11-28T10:50:48;10.50;68.40
11387;DHT22;5748;53.102;8.456;2022-11-28T10:53:40;10.50;68.40
11387;DHT22;5748;53.102;8.456;2022-11-28T10:56:18;10.50;68.60
11387;DHT22;5748;53.102;8.456;2022-11-28T10:58:54;10.50;68.50
11387;DHT22;5748;53.102;8.456;2022-11-28T11:01:28;10.50;68.40
11387;DHT22;5748;53.102;8.456;2022-11-28T11:03:59;10.50;68.50
11387;DHT22;5748;53.102;8.456;2022-11-28T11:06:27;10.50;68.40
11387;DHT22;5748;53.102;8.456;2022-11-28T11:08:54;10.50;69.20
11387;DHT22;5748;53.102;8.456;2022-11-28T11:11:24;10.50;68.60
11387;DHT22;5748;53.102;8.456;2022-11-28T11:13:58;10.50;68.60
11387;DHT22;5748;53.102;8.456;2022-11-28T11:16:52;10.50;68.70
11387;DHT22;5748;53.102;8.456;2022-11-28T11:19:24;10.50;68.90
11387;DHT22;5748;53.102;8.456;2022-11-28T11:21:59;10.60;68.80
11387;DHT22;5748;53.102;8.456;2022-11-28T11:24:29;10.60;68.70
11387;DHT22;5748;53.102;8.456;2022-11-28T11:27:06;10.60;69.50
11387;DHT22;5748;53.102;8.456;2022-11-28T11:29:41;10.60;68.80
11387;DHT22;5748;53.102;8.456;2022-11-28T11:32:17;10.60;68.80
11387;DHT22;5748;53.102;8.456;2022-11-28T11:34:46;10.70;68.90
11387;DHT22;5748;53.102;8.456;2022-11-28T11:37:32;10.70;68.90
11387;DHT22;5748;53.102;8.456;2022-11-28T11:40:02;10.70;69.00
11387;DHT22;5748;53.102;8.456;2022-11-28T11:42:35;10.80;69.10
11387;DHT22;5748;53.102;8.456;2022-11-28T11:45:24;10.80;68.90
11387;DHT22;5748;53.102;8.456;2022-11-28T11:47:55;10.80;69.10
11387;DHT22;5748;53.102;8.456;2022-11-28T11:50:24;10.90;69.10
11387;DHT22;5748;53.102;8.456;2022-11-28T11:53:04;10.90;68.90
11387;DHT22;5748;53.102;8.456;2022-11-28T11:55:39;10.80;68.90
11387;DHT22;5748;53.102;8.456;2022-11-28T11:58:11;10.90;68.90
11387;DHT22;5748;53.102;8.456;2022-11-28T12:00:42;10.90;68.90
11387;DHT22;5748;53.102;8.456;2022-11-28T12:03:18;10.90;68.80
11387;DHT22;5748;53.102;8.456;2022-11-28T12:05:52;11.00;69.00
11387;DHT22;5748;53.102;8.456;2022-11-28T12:08:26;11.00;68.90
11387;DHT22;5748;53.102;8.456;2022-11-28T12:11:08;11.00;68.90
11387;DHT22;5748;53.102;8.456;2022-11-28T12:13:39;11.00;68.90
11387;DHT22;5748;53.102;8.456;2022-11-28T12:16:16;11.00;68.70
11387;DHT22;5748;53.102;8.456;2022-11-28T12:18:59;11.00;68.70
11387;DHT22;5748;53.102;8.456;2022-11-28T12:21:37;11.00;68.60
11387;DHT22;5748;53.102;8.456;2022-11-28T12:24:09;11.00;68.50
11387;DHT22;5748;53.102;8.456;2022-11-28T12:26:43;11.00;68.50
11387;DHT22;5748;53.102;8.456;2022-11-28T12:29:28;11.00;68.60
11387;DHT22;5748;53.102;8.456;2022-11-28T12:32:16;11.00;68.60
11387;DHT22;5748;53.102;8.456;2022-11-28T12:35:10;11.00;68.50
11387;DHT22;5748;53.102;8.456;2022-11-28T12:37:52;11.00;68.50
11387;DHT22;5748;53.102;8.456;2022-11-28T12:40:31;11.00;68.50
11387;DHT22;5748;53.102;8.456;2022-11-28T12:43:14;11.00;68.50
11387;DHT22;5748;53.102;8.456;2022-11-28T12:45:53;11.00;68.50
11387;DHT22;5748;53.102;8.456;2022-11-28T12:48:33;11.00;68.50
11387;DHT22;5748;53.102;8.456;2022-11-28T12:51:15;11.00;68.50
11387;DHT22;5748;53.102;8.456;2022-11-28T12:54:11;11.00;68.40
11387;DHT22;5748;53.102;8.456;2022-11-28T12:56:53;11.00;68.30
11387;DHT22;5748;53.102;8.456;2022-11-28T12:59:29;11.00;68.30
11387;DHT22;5748;53.102;8.456;2022-11-28T13:02:06;11.00;68.30
11387;DHT22;5748;53.102;8.456;2022-11-28T13:05:04;11.00;68.40
11387;DHT22;5748;53.102;8.456;2022-11-28T13:08:01;11.00;68.40
11387;DHT22;5748;53.102;8.456;2022-11-28T13:10:44;11.00;68.40
11387;DHT22;5748;53.102;8.456;2022-11-28T13:13:16;11.00;68.40
11387;DHT22;5748;53.102;8.456;2022-11-28T13:15:58;11.00;68.40
11387;DHT22;5748;53.102;8.456;2022-11-28T13:18:37;11.00;68.40
11387;DHT22;5748;53.102;8.456;2022-11-28T13:21:14;11.00;68.40
11387;DHT22;5748;53.102;8.456;2022-11-28T13:23:51;11.10;68.40
11387;DHT22;5748;53.102;8.456;2022-11-28T13:26:33;11.00;68.30
11387;DHT22;5748;53.102;8.456;2022-11-28T13:29:17;11.00;68.30
11387;DHT22;5748;53.102;8.456;2022-11-28T13:31:54;11.00;68.30
11387;DHT22;5748;53.102;8.456;2022-11-28T13:34:25;11.00;68.30
11387;DHT22;5748;53.102;8.456;2022-11-28T13:36:57;10.90;68.20
11387;DHT22;5748;53.102;8.456;2022-11-28T13:39:36;11.00;68.50
11387;DHT22;5748;53.102;8.456;2022-11-28T13:42:26;11.00;68.50
11387;DHT22;5748;53.102;8.456;2022-11-28T13:45:00;11.00;68.50
11387;DHT22;5748;53.102;8.456;2022-11-28T13:47:33;10.90;68.30
11387;DHT22;5748;53.102;8.456;2022-11-28T13:50:38;10.90;68.30
11387;DHT22;5748;53.102;8.456;2022-11-28T13:53:23;10.90;68.40
11387;DHT22;5748;53.102;8.456;2022-11-28T13:58:49;10.90;68.30
11387;DHT22;5748;53.102;8.456;2022-11-28T14:01:19;10.90;68.40
11387;DHT22;5748;53.102;8.456;2022-11-28T14:03:49;11.00;68.50
11387;DHT22;5748;53.102;8.456;2022-11-28T14:06:19;10.90;68.40
11387;DHT22;5748;53.102;8.456;2022-11-28T14:08:59;10.90;68.40
11387;DHT22;5748;53.102;8.456;2022-11-28T14:14:43;10.90;68.50
11387;DHT22;5748;53.102;8.456;2022-11-28T14:17:32;10.90;68.50
11387;DHT22;5748;53.102;8.456;2022-11-28T14:20:16;10.90;68.50
11387;DHT22;5748;53.102;8.456;2022-11-28T14:22:54;10.90;68.50
11387;DHT22;5748;53.102;8.456;2022-11-28T14:25:30;10.90;68.50
11387;DHT22;5748;53.102;8.456;2022-11-28T14:28:02;10.90;68.40
11387;DHT22;5748;53.102;8.456;2022-11-28T14:30:34;11.00;68.50
11387;DHT22;5748;53.102;8.456;2022-11-28T14:33:05;10.90;68.30
11387;DHT22;5748;53.102;8.456;2022-11-28T14:39:11;10.90;68.40
11387;DHT22;5748;53.102;8.456;2022-11-28T14:48:17;10.90;68.20
11387;DHT22;5748;53.102;8.456;2022-11-28T14:50:53;10.90;68.20
11387;DHT22;5748;53.102;8.456;2022-11-28T14:53:46;10.90;68.10
11387;DHT22;5748;53.102;8.456;2022-11-28T14:56:26;10.80;68.30
11387;DHT22;5748;53.102;8.456;2022-11-28T14:59:00;10.90;68.40
11387;DHT22;5748;53.102;8.456;2022-11-28T15:01:47;10.80;68.20
11387;DHT22;5748;53.102;8.456;2022-11-28T15:07:26;10.80;68.30
11387;DHT22;5748;53.102;8.456;2022-11-28T15:10:03;10.80;68.20
11387;DHT22;5748;53.102;8.456;2022-11-28T15:12:44;10.80;68.40
11387;DHT22;5748;53.102;8.456;2022-11-28T15:15:18;10.70;68.20
11387;DHT22;5748;53.102;8.456;2022-11-28T15:17:49;10.80;68.30
11387;DHT22;5748;53.102;8.456;2022-11-28T15:20:21;10.70;68.20
11387;DHT22;5748;53.102;8.456;2022-11-28T15:22:52;10.70;68.20
11387;DHT22;5748;53.102;8.456;2022-11-28T15:25:21;10.80;68.30
11387;DHT22;5748;53.102;8.456;2022-11-28T15:27:50;10.80;68.30
11387;DHT22;5748;53.102;8.456;2022-11-28T15:30:19;10.70;68.20
11387;DHT22;5748;53.102;8.456;2022-11-28T15:32:52;10.70;68.30
11387;DHT22;5748;53.102;8.456;2022-11-28T15:35:21;10.80;68.50
11387;DHT22;5748;53.102;8.456;2022-11-28T15:37:50;10.70;68.40
11387;DHT22;5748;53.102;8.456;2022-11-28T15:40:22;10.70;68.40
11387;DHT22;5748;53.102;8.456;2022-11-28T15:42:51;10.70;68.30
11387;DHT22;5748;53.102;8.456;2022-11-28T15:45:23;10.70;68.30
11387;DHT22;5748;53.102;8.456;2022-11-28T15:47:53;10.70;68.40
11387;DHT22;5748;53.102;8.456;2022-11-28T15:50:22;10.70;68.30
11387;DHT22;5748;53.102;8.456;2022-11-28T15:52:57;10.70;68.30
11387;DHT22;5748;53.102;8.456;2022-11-28T15:55:27;10.70;69.00
11387;DHT22;5748;53.102;8.456;2022-11-28T15:58:09;10.70;68.30
11387;DHT22;5748;53.102;8.456;2022-11-28T16:00:46;10.70;68.30
11387;DHT22;5748;53.102;8.456;2022-11-28T16:03:19;10.70;68.30
11387;DHT22;5748;53.102;8.456;2022-11-28T16:05:50;10.70;69.10
11387;DHT22;5748;53.102;8.456;2022-11-28T16:08:24;10.70;68.30
11387;DHT22;5748;53.102;8.456;2022-11-28T16:10:54;10.70;68.30
11387;DHT22;5748;53.102;8.456;2022-11-28T16:13:23;10.70;68.30
11387;DHT22;5748;53.102;8.456;2022-11-28T16:15:51;10.60;68.20
11387;DHT22;5748;53.102;8.456;2022-11-28T16:18:22;10.60;68.30
11387;DHT22;5748;53.102;8.456;2022-11-28T16:20:50;10.60;68.30
11387;DHT22;5748;53.102;8.456;2022-11-28T16:23:20;10.60;68.30
11387;DHT22;5748;53.102;8.456;2022-11-28T16:26:00;10.60;68.30
11387;DHT22;5748;53.102;8.456;2022-11-28T16:28:33;10.60;68.30
11387;DHT22;5748;53.102;8.456;2022-11-28T16:31:09;10.60;68.30
11387;DHT22;5748;53.102;8.456;2022-11-28T16:33:39;10.60;68.30
11387;DHT22;5748;53.102;8.456;2022-11-28T16:36:10;10.60;68.20
11387;DHT22;5748;53.102;8.456;2022-11-28T16:38:45;10.60;68.20
11387;DHT22;5748;53.102;8.456;2022-11-28T16:41:14;10.60;68.20
11387;DHT22;5748;53.102;8.456;2022-11-28T16:43:48;10.60;69.00
11387;DHT22;5748;53.102;8.456;2022-11-28T16:46:19;10.60;68.40
11387;DHT22;5748;53.102;8.456;2022-11-28T16:48:53;10.60;68.40
11387;DHT22;5748;53.102;8.456;2022-11-28T16:51:39;10.60;68.50
11387;DHT22;5748;53.102;8.456;2022-11-28T16:54:36;10.60;68.50
11387;DHT22;5748;53.102;8.456;2022-11-28T16:57:10;10.50;68.40